Airfield :
LOGIN :

Register | Disclaimer

   EN    FR    IT 

 










Legend :    VFR   Marginal VFR   IFR   Intensive IFR   Very Intensive IFR
Visi :
Ceiling :
>= 8 km
>= 3000ft
5 to 8 km
1000 to 3000 ft
1500m to 5 km
500 to 1000 ft
800 to 1500m
200 to 500 ft
< 800m
< 200 ft
Symbols :   Thunderstorms  Fog  Heavy snow  Heavy precipitations  Wind > 20 kt
SIGMETs :     Misc.  Thunderstorms  Icing  Turbulence  Mountain Waves  Volcanic Ashes






- Airport Elevation : 39 ft
- IATA code : ANR


EBAW - Anvers / Antwerpen Deurne

CURRENT METAR :
  • 270320Z AUTO VRB02KT 2700 BR OVC004/// 08/06 Q1019

EXPIRED METARs :
  • 270250Z AUTO 06003KT 2600 BR OVC004/// 08/06 Q1019
  • 270220Z AUTO 05003KT 020V080 2700 BR OVC004/// 08/06 Q1019
  • 270150Z AUTO 03002KT 3000 BR OVC004/// 08/07 Q1019
  • 270120Z AUTO 02003KT 350V050 3700 // OVC004/// 08/07 Q1019
  • 270050Z AUTO 01003KT 330V040 4000 // FEW005/// BKN037/// OVC043/// 08/06 Q1019

TAF TAF EBAW
Valid from the 27 at 03:00 until the 27 at 12:00 UTC


270215Z 2703/2712 05003KT 4500 BR SCT008 BKN012
TEMPO 2703/2710 2500 -DZ SCT004 BKN006
PROB30
TEMPO 2705/2709 1200 BCFG



MET'MAP, your aeronautical weather chart ! - Copyright ORBIFLY December 2007 - Disclaimer

ORBIFLY MET'MAP TEAM :

Programming & Development : Alexandra Zaïnal
Concept & original design : Baudouin d'Aumeries
Assistance for programming : Marc-Olivier Méhu
Technical & hardware support : Manuel Goepfert

Contact : metmap@orbifly.com




SOURCES & CREDITS :

   NOAA